createdAt,value
2022-07-29T00:00:24.522Z,42.54
2022-07-29T00:02:27.397Z,41.57
2022-07-29T00:04:29.994Z,41.33
2022-07-29T00:06:31.982Z,41.66
2022-07-29T00:08:33.718Z,41.68
2022-07-29T00:10:36.286Z,41.50
2022-07-29T00:12:38.062Z,41.10
2022-07-29T00:14:40.094Z,41.56
2022-07-29T00:16:42.016Z,41.48
2022-07-29T00:18:43.915Z,41.01
2022-07-29T00:20:45.669Z,40.90
2022-07-29T00:22:47.479Z,40.38
2022-07-29T00:24:50.281Z,40.30
2022-07-29T00:26:52.178Z,40.48
2022-07-29T00:29:06.388Z,40.41
2022-07-29T00:31:16.222Z,40.84
2022-07-29T00:33:18.167Z,40.83
2022-07-29T00:35:38.798Z,40.65
2022-07-29T00:37:40.733Z,40.70
2022-07-29T00:39:42.620Z,40.78
2022-07-29T00:41:44.363Z,40.94
2022-07-29T00:43:46.680Z,40.30
2022-07-29T00:45:48.474Z,40.57
2022-07-29T00:47:50.658Z,40.23
2022-07-29T00:49:52.459Z,40.25
2022-07-29T00:51:54.777Z,40.57
2022-07-29T00:53:57.130Z,39.83
2022-07-29T00:56:00.246Z,39.85
2022-07-29T00:58:02.007Z,40.04
2022-07-29T01:00:09.990Z,39.66
2022-07-29T01:02:11.896Z,39.93
2022-07-29T01:04:14.156Z,39.58
2022-07-29T01:06:18.265Z,39.93
2022-07-29T01:08:21.827Z,39.78
2022-07-29T01:10:24.573Z,39.94
2022-07-29T01:12:27.943Z,39.84
2022-07-29T01:14:30.338Z,40.23
2022-07-29T01:16:35.047Z,39.79
2022-07-29T01:18:43.212Z,39.84
2022-07-29T01:21:21.846Z,39.91
2022-07-29T01:23:54.241Z,39.51
2022-07-29T01:26:02.974Z,40.11
2022-07-29T01:28:15.985Z,40.14
2022-07-29T01:30:19.499Z,39.92
2022-07-29T01:32:29.534Z,39.53
2022-07-29T01:34:42.289Z,40.66
2022-07-29T01:36:50.094Z,39.97
2022-07-29T01:39:03.423Z,40.37
2022-07-29T01:41:15.603Z,40.07
2022-07-29T01:43:24.956Z,40.19
2022-07-29T01:45:45.931Z,40.13
2022-07-29T01:48:01.032Z,40.72
2022-07-29T01:50:07.171Z,40.46
2022-07-29T01:52:16.551Z,40.42
2022-07-29T01:54:40.120Z,41.03
2022-07-29T01:56:44.836Z,40.33
2022-07-29T01:58:49.180Z,40.94
2022-07-29T02:00:52.804Z,41.15
2022-07-29T02:02:56.994Z,40.56
2022-07-29T02:05:03.324Z,40.61
2022-07-29T02:07:08.140Z,41.47
2022-07-29T02:09:12.755Z,41.84
2022-07-29T02:11:15.198Z,42.24
2022-07-29T02:13:19.165Z,41.54
2022-07-29T02:15:22.573Z,41.77
2022-07-29T02:17:41.030Z,41.36
2022-07-29T02:19:45.707Z,41.31
2022-07-29T02:21:47.990Z,41.26
2022-07-29T02:23:52.390Z,41.12
2022-07-29T02:25:57.139Z,40.94
2022-07-29T02:28:02.076Z,41.26
2022-07-29T02:30:05.420Z,41.35
2022-07-29T02:32:09.820Z,40.68
2022-07-29T02:34:13.177Z,41.20
2022-07-29T02:36:17.163Z,41.21
2022-07-29T02:38:39.615Z,41.13
2022-07-29T02:40:44.020Z,41.19
2022-07-29T02:42:47.501Z,40.98
2022-07-29T02:44:49.527Z,41.24
2022-07-29T02:47:25.869Z,41.85
2022-07-29T02:49:39.585Z,41.59
2022-07-29T02:51:46.258Z,41.27
2022-07-29T02:53:52.619Z,42.00
2022-07-29T02:56:00.452Z,44.03
2022-07-29T02:58:06.834Z,43.17
2022-07-29T03:00:10.981Z,43.26
2022-07-29T03:02:15.710Z,43.15
2022-07-29T03:04:20.342Z,42.61
2022-07-29T03:06:37.453Z,42.79
2022-07-29T03:08:40.991Z,42.85
2022-07-29T03:10:46.735Z,42.61
2022-07-29T03:12:49.483Z,42.63
2022-07-29T03:14:53.359Z,42.65
2022-07-29T03:16:55.353Z,42.56
2022-07-29T03:18:57.356Z,43.15
2022-07-29T03:20:59.282Z,42.87
2022-07-29T03:23:01.518Z,42.72
2022-07-29T03:25:12.870Z,42.97
2022-07-29T03:27:14.729Z,42.86
2022-07-29T03:29:16.447Z,43.30
2022-07-29T03:31:22.066Z,42.51
2022-07-29T03:33:23.944Z,42.74
2022-07-29T03:35:25.851Z,42.86
2022-07-29T03:37:27.749Z,42.55
2022-07-29T03:39:34.721Z,43.19
2022-07-29T03:41:39.550Z,42.47
2022-07-29T03:43:49.768Z,42.34
2022-07-29T03:45:55.289Z,42.52
2022-07-29T03:48:02.230Z,42.69
2022-07-29T03:50:10.761Z,42.96
2022-07-29T03:52:12.930Z,42.96
2022-07-29T03:54:15.389Z,42.62
2022-07-29T03:56:22.064Z,42.95
2022-07-29T03:58:27.434Z,43.22
2022-07-29T04:00:30.804Z,43.01
2022-07-29T04:02:33.555Z,42.96
2022-07-29T04:04:36.366Z,43.13
2022-07-29T04:06:45.798Z,43.20
2022-07-29T04:08:50.161Z,42.96
2022-07-29T04:10:53.541Z,42.96
2022-07-29T04:12:55.264Z,43.22
2022-07-29T04:14:57.013Z,43.65
2022-07-29T04:16:59.075Z,44.12
2022-07-29T04:19:01.543Z,44.48
2022-07-29T04:21:05.021Z,44.73
2022-07-29T04:23:06.950Z,45.42
2022-07-29T04:25:09.546Z,44.98
2022-07-29T04:27:11.877Z,44.85
2022-07-29T04:29:15.238Z,45.66
2022-07-29T04:31:17.984Z,45.15
2022-07-29T04:33:21.365Z,45.41
2022-07-29T04:35:26.833Z,45.24
2022-07-29T04:37:28.596Z,45.42
2022-07-29T04:39:30.639Z,45.36
2022-07-29T04:41:33.294Z,45.28
2022-07-29T04:43:38.241Z,45.26
2022-07-29T04:45:40.051Z,45.55
2022-07-29T04:47:42.344Z,45.99
2022-07-29T04:49:44.076Z,45.82
2022-07-29T04:51:45.794Z,45.37
2022-07-29T04:53:47.590Z,45.35
2022-07-29T04:55:49.534Z,46.09
2022-07-29T04:59:53.422Z,45.83
2022-07-29T05:01:55.304Z,46.67
2022-07-29T05:04:00.311Z,46.50
2022-07-29T05:06:02.686Z,46.39
2022-07-29T05:08:04.800Z,47.18
2022-07-29T05:10:07.017Z,48.08
2022-07-29T05:12:09.226Z,48.37
2022-07-29T05:14:10.975Z,48.57
2022-07-29T05:16:13.016Z,49.09
2022-07-29T05:18:15.182Z,48.74
2022-07-29T05:20:17.101Z,47.88
2022-07-29T05:22:20.395Z,49.02
2022-07-29T05:24:22.476Z,48.79
2022-07-29T05:26:24.319Z,49.75
2022-07-29T05:28:26.150Z,49.13
2022-07-29T05:30:28.052Z,49.39
2022-07-29T05:32:29.865Z,48.96
2022-07-29T05:34:32.643Z,48.70
2022-07-29T05:36:34.333Z,48.18
2022-07-29T05:38:37.194Z,48.00
2022-07-29T05:40:39.110Z,47.59
2022-07-29T05:42:40.965Z,47.70
2022-07-29T05:44:42.914Z,47.91
2022-07-29T05:46:44.802Z,47.76
2022-07-29T05:48:46.667Z,47.91
2022-07-29T05:50:48.676Z,47.83
2022-07-29T05:52:50.450Z,47.44
2022-07-29T05:54:52.733Z,47.79
2022-07-29T05:56:54.579Z,47.84
2022-07-29T05:58:56.437Z,47.43
2022-07-29T06:01:01.591Z,47.76
2022-07-29T06:03:03.617Z,47.16
2022-07-29T06:05:05.549Z,47.47
2022-07-29T06:07:12.877Z,47.74
2022-07-29T06:09:14.943Z,47.54
2022-07-29T06:11:16.847Z,47.54
2022-07-29T06:13:18.653Z,47.18
2022-07-29T06:15:20.730Z,47.17
2022-07-29T06:17:22.876Z,47.10
2022-07-29T06:19:24.754Z,47.31
2022-07-29T06:21:26.808Z,48.53
2022-07-29T06:23:28.760Z,49.84
2022-07-29T06:25:31.293Z,49.85
2022-07-29T06:27:33.343Z,49.72
2022-07-29T06:29:36.034Z,49.32
2022-07-29T06:31:38.593Z,48.90
2022-07-29T06:33:40.433Z,48.97
2022-07-29T06:35:46.655Z,49.10
2022-07-29T06:37:55.331Z,49.24
2022-07-29T06:40:20.118Z,49.31
2022-07-29T06:42:22.541Z,48.76
2022-07-29T06:44:24.317Z,49.60
2022-07-29T06:46:26.174Z,49.03
2022-07-29T06:48:29.209Z,48.51
2022-07-29T06:50:31.017Z,48.42
2022-07-29T06:52:33.311Z,48.75
2022-07-29T06:54:35.088Z,48.17
2022-07-29T06:56:40.255Z,47.99
2022-07-29T06:58:42.533Z,47.83
2022-07-29T07:00:46.012Z,47.85
2022-07-29T07:02:47.864Z,48.08
2022-07-29T07:04:49.959Z,47.83
2022-07-29T07:06:51.928Z,47.87
2022-07-29T07:08:54.881Z,47.82
2022-07-29T07:10:57.918Z,46.91
2022-07-29T07:13:00.665Z,47.12
2022-07-29T07:15:02.817Z,47.07
2022-07-29T07:17:05.058Z,47.17
2022-07-29T07:19:06.801Z,46.61
2022-07-29T07:21:08.821Z,45.98
2022-07-29T07:23:10.745Z,45.65
2022-07-29T07:25:13.431Z,46.04
2022-07-29T07:27:15.265Z,45.58
2022-07-29T07:29:17.261Z,45.05
2022-07-29T07:31:19.209Z,44.70
2022-07-29T07:33:21.537Z,44.58
2022-07-29T07:35:23.709Z,44.90
2022-07-29T07:37:26.471Z,44.06
2022-07-29T07:39:28.356Z,43.63
2022-07-29T07:41:32.506Z,43.39
2022-07-29T07:43:34.974Z,43.05
2022-07-29T07:45:38.581Z,42.50
2022-07-29T07:47:40.976Z,42.09
2022-07-29T07:49:43.062Z,41.20
2022-07-29T07:51:50.721Z,42.21
2022-07-29T07:53:53.435Z,41.75
2022-07-29T07:56:12.533Z,41.24
2022-07-29T07:58:14.777Z,41.16
2022-07-29T08:00:17.908Z,41.63
2022-07-29T08:02:19.766Z,41.46
2022-07-29T08:04:26.867Z,41.48
2022-07-29T08:06:30.149Z,41.26
2022-07-29T08:08:32.078Z,41.10
2022-07-29T08:10:53.176Z,40.89
2022-07-29T08:12:54.969Z,40.67
2022-07-29T08:14:56.856Z,40.74
2022-07-29T08:16:58.739Z,40.10
2022-07-29T08:19:00.779Z,40.17
2022-07-29T08:21:02.633Z,40.03
2022-07-29T08:23:07.002Z,39.52
2022-07-29T08:25:08.846Z,39.44
2022-07-29T08:27:40.721Z,39.77
2022-07-29T08:29:37.329Z,39.61
2022-07-29T08:31:41.561Z,38.82
2022-07-29T08:33:44.120Z,39.03
2022-07-29T08:35:46.691Z,38.85
2022-07-29T08:37:48.827Z,38.13
2022-07-29T08:39:50.774Z,38.54
2022-07-29T08:41:56.774Z,38.30
2022-07-29T08:43:59.313Z,38.18
2022-07-29T08:46:01.665Z,37.91
2022-07-29T08:48:04.355Z,37.95
2022-07-29T08:50:07.721Z,37.80
2022-07-29T08:52:12.448Z,37.77
2022-07-29T08:54:19.894Z,37.24
2022-07-29T08:56:22.158Z,36.09
2022-07-29T08:58:25.897Z,35.68
2022-07-29T09:00:28.829Z,36.45
2022-07-29T09:02:36.433Z,35.72
2022-07-29T09:04:38.673Z,36.61
2022-07-29T09:06:46.424Z,36.00
2022-07-29T09:08:48.663Z,35.70
2022-07-29T09:10:52.294Z,35.76
2022-07-29T09:12:56.360Z,35.71
2022-07-29T09:14:58.174Z,35.30
2022-07-29T09:17:00.460Z,35.72
2022-07-29T09:19:21.104Z,34.67
2022-07-29T09:21:41.461Z,34.88
2022-07-29T09:24:06.335Z,33.70
2022-07-29T09:26:08.154Z,33.59
2022-07-29T09:28:15.224Z,33.89
2022-07-29T09:30:28.855Z,33.95
2022-07-29T09:32:34.852Z,34.15
2022-07-29T09:34:36.771Z,34.22
2022-07-29T09:36:48.485Z,33.97
2022-07-29T09:39:01.160Z,32.78
2022-07-29T09:41:06.742Z,33.60
2022-07-29T09:43:13.438Z,33.18
2022-07-29T09:45:44.677Z,31.96
2022-07-29T09:47:49.876Z,32.79
2022-07-29T09:50:00.421Z,32.69
2022-07-29T09:52:12.253Z,32.50
2022-07-29T09:54:27.538Z,31.55
2022-07-29T09:56:40.584Z,32.32
2022-07-29T09:58:42.408Z,31.96
2022-07-29T10:00:46.107Z,32.05
2022-07-29T10:02:48.923Z,32.23
2022-07-29T10:04:51.937Z,31.86
2022-07-29T10:07:03.767Z,32.14
2022-07-29T10:09:11.398Z,31.75
2022-07-29T10:11:18.292Z,31.15
2022-07-29T10:13:20.290Z,31.87
2022-07-29T10:15:24.763Z,31.30
2022-07-29T10:17:26.617Z,31.50
2022-07-29T10:19:32.693Z,31.81
2022-07-29T10:21:36.585Z,30.94
2022-07-29T10:23:46.978Z,30.76
2022-07-29T10:25:49.274Z,30.76
2022-07-29T10:27:52.528Z,30.93
2022-07-29T10:29:55.331Z,30.61
2022-07-29T10:32:23.740Z,29.97
2022-07-29T10:35:04.056Z,30.10
2022-07-29T10:37:20.599Z,30.56
2022-07-29T10:39:44.504Z,30.35
2022-07-29T10:42:00.277Z,30.37
2022-07-29T10:44:04.714Z,30.38
2022-07-29T10:46:07.334Z,29.99
2022-07-29T10:48:09.906Z,29.89
2022-07-29T10:50:17.130Z,29.92
2022-07-29T10:52:20.777Z,30.35
2022-07-29T10:54:37.718Z,29.72
2022-07-29T10:56:41.604Z,29.96
2022-07-29T10:58:52.753Z,30.05
2022-07-29T11:00:56.329Z,29.32
2022-07-29T11:03:00.262Z,29.66
2022-07-29T11:05:05.334Z,29.81
2022-07-29T11:07:11.717Z,29.49
2022-07-29T11:09:30.175Z,29.74
2022-07-29T11:11:38.010Z,29.63
2022-07-29T11:13:47.330Z,29.54
2022-07-29T11:15:58.437Z,30.19
2022-07-29T11:18:05.375Z,29.85
2022-07-29T11:20:43.636Z,29.63
2022-07-29T11:22:47.420Z,30.14
2022-07-29T11:25:19.259Z,29.88
2022-07-29T11:27:41.152Z,30.14
2022-07-29T11:29:53.674Z,29.85
2022-07-29T11:32:10.216Z,30.17
2022-07-29T11:34:30.341Z,29.66
2022-07-29T11:36:32.149Z,29.89
2022-07-29T11:38:34.012Z,29.87
2022-07-29T11:40:35.876Z,29.92
2022-07-29T11:42:44.473Z,29.91
2022-07-29T11:44:57.416Z,29.82
2022-07-29T11:47:00.415Z,29.84
2022-07-29T11:49:03.664Z,29.78
2022-07-29T11:51:13.216Z,29.83
2022-07-29T11:53:16.074Z,29.19
2022-07-29T11:55:20.384Z,29.57
2022-07-29T11:57:22.327Z,29.31
2022-07-29T11:59:33.442Z,29.11
2022-07-29T12:01:37.177Z,29.38
2022-07-29T12:03:39.140Z,29.48
2022-07-29T12:05:48.419Z,28.96
2022-07-29T12:07:53.717Z,29.14
2022-07-29T12:09:56.935Z,29.01
2022-07-29T12:12:04.934Z,28.96
2022-07-29T12:14:07.301Z,28.74
2022-07-29T12:16:09.279Z,28.29
2022-07-29T12:18:19.130Z,28.45
2022-07-29T12:20:30.422Z,28.50
2022-07-29T12:22:38.372Z,28.02
2022-07-29T12:24:46.434Z,28.54
2022-07-29T12:26:55.457Z,28.30
2022-07-29T12:28:57.706Z,28.64
2022-07-29T12:31:05.867Z,28.59
2022-07-29T12:33:13.353Z,28.66
2022-07-29T12:35:20.716Z,28.99
2022-07-29T12:37:40.580Z,29.14
2022-07-29T12:39:44.738Z,29.03
2022-07-29T12:41:47.410Z,28.97
2022-07-29T12:43:56.452Z,28.98
2022-07-29T12:45:58.481Z,28.78
2022-07-29T12:48:00.391Z,28.86
2022-07-29T12:50:16.118Z,28.54
2022-07-29T12:52:33.007Z,28.99
2022-07-29T12:54:34.960Z,28.98
2022-07-29T12:56:45.614Z,29.03
2022-07-29T12:58:51.081Z,28.83
2022-07-29T13:01:17.093Z,28.87
2022-07-29T13:03:19.562Z,28.97
2022-07-29T13:05:21.919Z,29.04
2022-07-29T13:07:54.175Z,29.66
2022-07-29T13:09:50.176Z,30.12
2022-07-29T13:11:54.022Z,30.89
2022-07-29T13:14:05.826Z,31.37
2022-07-29T13:16:09.422Z,32.25
2022-07-29T13:18:34.587Z,33.52
2022-07-29T13:20:36.572Z,33.51
2022-07-29T13:22:38.339Z,33.00
2022-07-29T13:24:54.510Z,35.21
2022-07-29T13:26:56.497Z,34.90
2022-07-29T13:28:58.465Z,35.14
2022-07-29T13:31:00.304Z,36.05
2022-07-29T13:33:02.082Z,36.56
2022-07-29T13:35:07.194Z,37.10
2022-07-29T13:37:09.024Z,37.51
2022-07-29T13:39:12.390Z,37.09
2022-07-29T13:41:14.338Z,38.37
2022-07-29T13:43:16.461Z,38.56
2022-07-29T13:45:18.524Z,38.99
2022-07-29T13:47:20.931Z,39.69
2022-07-29T13:49:23.509Z,39.50
2022-07-29T13:51:25.670Z,41.17
2022-07-29T13:53:28.896Z,41.83
2022-07-29T13:55:30.780Z,43.55
2022-07-29T13:57:33.027Z,43.28
2022-07-29T13:59:35.590Z,42.52
2022-07-29T14:01:37.466Z,43.49
2022-07-29T14:03:45.794Z,43.29
2022-07-29T14:05:47.768Z,43.46
2022-07-29T14:07:50.132Z,44.40
2022-07-29T14:09:52.089Z,44.25
2022-07-29T14:11:54.299Z,45.33
2022-07-29T14:13:56.536Z,44.47
2022-07-29T14:15:58.915Z,46.36
2022-07-29T14:18:00.782Z,46.50
2022-07-29T14:20:02.565Z,46.00
2022-07-29T14:22:06.520Z,45.87
2022-07-29T14:24:17.060Z,45.16
2022-07-29T14:26:21.610Z,45.07
2022-07-29T14:28:26.743Z,44.79
2022-07-29T14:30:28.494Z,44.30
2022-07-29T14:32:30.325Z,44.19
2022-07-29T14:34:32.398Z,44.61
2022-07-29T14:36:34.222Z,45.42
2022-07-29T14:38:38.274Z,45.40
2022-07-29T14:40:40.133Z,45.08
2022-07-29T14:42:42.273Z,45.67
2022-07-29T14:44:44.761Z,45.07
2022-07-29T14:46:48.591Z,44.87
2022-07-29T14:48:51.416Z,44.61
2022-07-29T14:50:53.567Z,44.32
2022-07-29T14:52:55.428Z,44.10
2022-07-29T14:54:57.241Z,43.82
2022-07-29T14:56:59.123Z,44.07
2022-07-29T14:59:00.902Z,44.03
2022-07-29T15:01:02.837Z,43.38
2022-07-29T15:03:05.297Z,44.35
2022-07-29T15:05:07.639Z,43.83
2022-07-29T15:07:09.485Z,43.76
2022-07-29T15:09:11.639Z,43.73
2022-07-29T15:11:13.816Z,43.25
2022-07-29T15:13:15.685Z,42.87
2022-07-29T15:15:17.432Z,43.57
2022-07-29T15:17:19.350Z,44.19
2022-07-29T15:19:21.256Z,43.91
2022-07-29T15:21:23.262Z,44.01
2022-07-29T15:23:24.987Z,44.13
2022-07-29T15:25:30.701Z,44.68
2022-07-29T15:27:32.543Z,44.20
2022-07-29T15:29:34.297Z,44.42
2022-07-29T15:31:36.369Z,44.45
2022-07-29T15:33:38.282Z,45.39
2022-07-29T15:35:40.858Z,45.76
2022-07-29T15:37:49.003Z,46.13
2022-07-29T15:39:51.357Z,47.15
2022-07-29T15:41:53.455Z,46.34
2022-07-29T15:43:55.292Z,46.46
2022-07-29T15:46:16.158Z,46.34
2022-07-29T15:48:18.390Z,46.29
2022-07-29T15:50:20.262Z,46.64
2022-07-29T15:52:25.187Z,47.38
2022-07-29T15:54:28.847Z,47.98
2022-07-29T15:56:31.256Z,47.88
2022-07-29T15:58:33.073Z,47.73
2022-07-29T16:00:34.871Z,47.22
2022-07-29T16:02:37.280Z,48.59
2022-07-29T16:04:39.151Z,48.75
2022-07-29T16:06:41.029Z,48.46
2022-07-29T16:08:43.017Z,49.13
2022-07-29T16:10:44.866Z,48.50
2022-07-29T16:12:47.045Z,49.18
2022-07-29T16:14:51.013Z,50.10
2022-07-29T16:16:53.041Z,49.53
2022-07-29T16:18:55.805Z,49.75
2022-07-29T16:20:58.437Z,50.37
2022-07-29T16:23:00.307Z,50.25
2022-07-29T16:25:02.129Z,49.85
2022-07-29T16:27:04.140Z,49.42
2022-07-29T16:29:05.956Z,49.41
2022-07-29T16:31:08.059Z,49.23
2022-07-29T16:33:09.944Z,49.07
2022-07-29T16:35:12.055Z,48.90
2022-07-29T16:37:15.606Z,48.96
2022-07-29T16:39:17.729Z,49.16
2022-07-29T16:41:19.526Z,49.18
2022-07-29T16:43:21.289Z,49.12
2022-07-29T16:45:23.242Z,48.96
2022-07-29T16:47:26.396Z,48.74
2022-07-29T16:49:29.191Z,49.05
2022-07-29T16:51:30.961Z,48.54
2022-07-29T16:53:32.937Z,48.86
2022-07-29T16:55:34.800Z,48.66
2022-07-29T16:57:36.874Z,48.09
2022-07-29T16:59:43.361Z,48.23
2022-07-29T17:01:45.536Z,48.22
2022-07-29T17:04:06.323Z,47.38
2022-07-29T17:06:09.413Z,47.72
2022-07-29T17:08:12.234Z,47.22
2022-07-29T17:10:17.321Z,47.18
2022-07-29T17:12:19.162Z,46.99
2022-07-29T17:14:24.093Z,46.98
2022-07-29T17:16:29.291Z,47.06
2022-07-29T17:18:31.132Z,46.94
2022-07-29T17:20:33.249Z,47.16
2022-07-29T17:22:35.262Z,46.53
2022-07-29T17:24:38.127Z,46.86
2022-07-29T17:26:43.218Z,46.85
2022-07-29T17:28:45.228Z,46.58
2022-07-29T17:30:47.270Z,47.05
2022-07-29T17:32:49.831Z,47.09
2022-07-29T17:34:51.736Z,47.16
2022-07-29T17:36:53.661Z,47.05
2022-07-29T17:39:02.611Z,47.14
2022-07-29T17:41:09.634Z,47.11
2022-07-29T17:43:11.586Z,47.27
2022-07-29T17:45:13.335Z,47.36
2022-07-29T17:47:16.309Z,47.57
2022-07-29T17:49:18.643Z,47.90
2022-07-29T17:51:20.715Z,48.06
2022-07-29T17:53:22.812Z,48.40
2022-07-29T17:55:24.660Z,48.60
2022-07-29T17:57:26.470Z,49.19
2022-07-29T17:59:28.536Z,48.76
2022-07-29T18:01:30.387Z,48.86
2022-07-29T18:03:32.499Z,48.90
2022-07-29T18:05:34.527Z,48.77
2022-07-29T18:07:36.367Z,48.00
2022-07-29T18:09:38.575Z,48.07
2022-07-29T18:11:40.346Z,47.65
2022-07-29T18:13:46.277Z,47.32
2022-07-29T18:15:48.592Z,47.71
2022-07-29T18:17:50.527Z,47.60
2022-07-29T18:19:59.372Z,47.21
2022-07-29T18:22:05.188Z,47.42
2022-07-29T18:24:08.360Z,47.59
2022-07-29T18:26:10.219Z,46.95
2022-07-29T18:28:12.052Z,47.17
2022-07-29T18:30:17.054Z,47.57
2022-07-29T18:32:19.432Z,47.16
2022-07-29T18:34:30.883Z,47.02
2022-07-29T18:36:32.745Z,47.36
2022-07-29T18:38:34.888Z,47.13
2022-07-29T18:40:38.793Z,47.08
2022-07-29T18:42:43.564Z,47.45
2022-07-29T18:44:49.090Z,47.08
2022-07-29T18:46:52.212Z,46.68
2022-07-29T18:48:54.247Z,46.39
2022-07-29T18:50:57.291Z,47.06
2022-07-29T18:53:01.253Z,46.90
2022-07-29T18:55:03.971Z,47.45
2022-07-29T18:57:55.155Z,47.81
2022-07-29T18:59:27.559Z,48.19
2022-07-29T19:01:31.763Z,48.13
2022-07-29T19:03:33.910Z,48.45
2022-07-29T19:05:35.820Z,47.89
2022-07-29T19:07:38.623Z,48.17
2022-07-29T19:09:49.303Z,48.25
2022-07-29T19:11:55.570Z,48.16
2022-07-29T19:13:58.551Z,47.93
2022-07-29T19:16:00.445Z,47.95
2022-07-29T19:18:02.277Z,48.10
2022-07-29T19:20:04.580Z,48.19
2022-07-29T19:22:09.553Z,47.90
2022-07-29T19:24:15.393Z,48.66
2022-07-29T19:26:20.318Z,48.09
2022-07-29T19:28:23.192Z,49.21
2022-07-29T19:30:25.041Z,49.41
2022-07-29T19:32:28.444Z,49.57
2022-07-29T19:34:30.442Z,49.88
2022-07-29T19:36:32.413Z,49.50
2022-07-29T19:38:34.341Z,49.76
2022-07-29T19:40:36.668Z,49.57
2022-07-29T19:42:39.040Z,49.50
2022-07-29T19:44:40.759Z,50.05
2022-07-29T19:46:43.114Z,50.48
2022-07-29T19:48:45.275Z,50.83
2022-07-29T19:50:47.447Z,51.01
2022-07-29T19:52:49.491Z,50.68
2022-07-29T19:54:51.235Z,50.84
2022-07-29T19:56:52.991Z,50.33
2022-07-29T19:58:54.979Z,49.84
2022-07-29T20:00:56.758Z,49.72
2022-07-29T20:02:59.142Z,49.38
2022-07-29T20:05:01.015Z,49.55
2022-07-29T20:07:03.330Z,49.50
2022-07-29T20:09:06.177Z,49.37
2022-07-29T20:11:08.194Z,49.57
2022-07-29T20:13:10.230Z,49.24
2022-07-29T20:15:16.243Z,49.35
2022-07-29T20:17:25.820Z,48.95
2022-07-29T20:19:27.649Z,49.14
2022-07-29T20:21:29.877Z,48.59
2022-07-29T20:23:33.443Z,48.74
2022-07-29T20:25:35.572Z,48.51
2022-07-29T20:27:40.455Z,48.24
2022-07-29T20:29:42.403Z,48.98
2022-07-29T20:31:45.543Z,49.23
2022-07-29T20:33:54.016Z,49.33
2022-07-29T20:35:55.890Z,49.63
2022-07-29T20:37:57.720Z,49.61
2022-07-29T20:39:59.796Z,49.14
2022-07-29T20:42:02.173Z,49.22
2022-07-29T20:44:04.887Z,49.23
2022-07-29T20:46:06.852Z,49.24
2022-07-29T20:48:10.519Z,49.62
2022-07-29T20:50:12.432Z,49.49
2022-07-29T20:52:14.170Z,49.41
2022-07-29T20:54:16.030Z,49.01
2022-07-29T20:56:17.889Z,49.08
2022-07-29T20:58:20.000Z,49.01
2022-07-29T21:00:21.951Z,48.88
2022-07-29T21:02:23.829Z,48.56
2022-07-29T21:04:30.758Z,49.01
2022-07-29T21:06:35.033Z,49.05
2022-07-29T21:08:37.706Z,49.05
2022-07-29T21:10:39.957Z,49.31
2022-07-29T21:12:42.028Z,50.09
2022-07-29T21:14:48.069Z,50.00
2022-07-29T21:16:50.360Z,49.89
2022-07-29T21:18:53.146Z,50.28
2022-07-29T21:20:55.340Z,50.51
2022-07-29T21:22:58.046Z,50.25
2022-07-29T21:25:00.208Z,51.29
2022-07-29T21:27:21.799Z,51.26
2022-07-29T21:29:23.890Z,51.42
2022-07-29T21:31:27.095Z,51.00
2022-07-29T21:33:30.591Z,51.29
2022-07-29T21:37:54.521Z,51.04
2022-07-29T21:39:56.366Z,50.58
2022-07-29T21:41:58.378Z,50.45
2022-07-29T21:44:00.293Z,50.22
2022-07-29T21:46:03.730Z,50.10
2022-07-29T21:48:07.108Z,49.41
2022-07-29T21:50:09.565Z,49.59
2022-07-29T21:52:11.376Z,49.28
2022-07-29T21:54:13.220Z,49.08
2022-07-29T21:56:15.817Z,49.12
2022-07-29T21:58:22.014Z,49.28
2022-07-29T22:00:25.701Z,49.14
2022-07-29T22:02:27.661Z,48.89
2022-07-29T22:04:30.268Z,49.19
2022-07-29T22:06:34.509Z,48.73
2022-07-29T22:08:36.340Z,49.01
2022-07-29T22:10:38.334Z,48.68
2022-07-29T22:12:40.508Z,49.01
2022-07-29T22:14:42.241Z,48.80
2022-07-29T22:16:45.713Z,49.03
2022-07-29T22:18:48.332Z,48.69
2022-07-29T22:20:50.634Z,48.83
2022-07-29T22:22:52.560Z,48.61
2022-07-29T22:24:55.800Z,48.77
2022-07-29T22:26:57.861Z,48.75
2022-07-29T22:29:00.223Z,48.67
2022-07-29T22:31:02.181Z,48.63
2022-07-29T22:33:04.010Z,48.37
2022-07-29T22:35:06.299Z,48.68
2022-07-29T22:37:08.259Z,48.11
2022-07-29T22:39:10.478Z,48.72
2022-07-29T22:41:15.624Z,48.31
2022-07-29T22:43:17.905Z,49.06
2022-07-29T22:45:20.272Z,49.24
2022-07-29T22:47:46.301Z,49.05
2022-07-29T22:49:44.257Z,48.57
2022-07-29T22:51:46.115Z,48.93
2022-07-29T22:53:47.847Z,48.93
2022-07-29T22:55:50.196Z,49.07
2022-07-29T22:57:51.946Z,48.85
2022-07-29T22:59:53.719Z,48.63
2022-07-29T23:01:55.595Z,48.49
2022-07-29T23:03:57.510Z,48.45
2022-07-29T23:06:00.016Z,48.76
2022-07-29T23:08:01.897Z,48.62
2022-07-29T23:10:04.499Z,48.58
2022-07-29T23:12:07.031Z,48.75
2022-07-29T23:14:09.605Z,49.03
2022-07-29T23:16:11.706Z,49.19
2022-07-29T23:18:13.759Z,49.16
2022-07-29T23:20:15.649Z,48.62
2022-07-29T23:22:18.589Z,48.69
2022-07-29T23:24:20.870Z,48.72
2022-07-29T23:26:22.658Z,49.00
2022-07-29T23:28:24.583Z,48.60
2022-07-29T23:30:26.703Z,48.66
2022-07-29T23:32:28.945Z,48.77
2022-07-29T23:34:31.134Z,48.91
2022-07-29T23:36:33.193Z,48.60
2022-07-29T23:38:34.989Z,48.80
2022-07-29T23:40:37.710Z,48.40
2022-07-29T23:42:39.518Z,48.88
2022-07-29T23:44:41.495Z,48.60
2022-07-29T23:46:43.371Z,48.87
2022-07-29T23:48:45.282Z,48.24
2022-07-29T23:50:47.043Z,49.28
2022-07-29T23:52:48.808Z,48.33
2022-07-29T23:54:51.214Z,49.04
2022-07-29T23:56:53.037Z,49.10
2022-07-29T23:58:54.844Z,48.71
